Time;durP1;ratioP1;P1;durP2;ratioP2;P2;SDS_P1;SDS_P2;PMS_P1;PMS_P2;Temp;Humidity;BMP_temperature;BMP_pressure;BME280_temperature;BME280_humidity;BME280_pressure;Samples;Min_cycle;Max_cycle;Signal;HPM_P1;HPM_P2
2020/12/06 00:00:33;;;;;;;29.37;16.60;;;;;;;2.48;100.00;96840.48;3697930;79;44060;-22
2020/12/06 00:05:38;;;;;;;30.83;17.17;;;;;;;2.54;100.00;96861.65;3713087;79;43985;-22
2020/12/06 00:10:44;;;;;;;29.30;17.07;;;;;;;2.54;100.00;96846.55;3698065;80;44012;-22
2020/12/06 00:15:50;;;;;;;29.47;16.80;;;;;;;2.51;100.00;96826.91;3707286;79;42861;-21
2020/12/06 00:20:56;;;;;;;28.93;17.13;;;;;;;2.56;100.00;96838.41;3718985;79;44004;-22
2020/12/06 00:26:04;;;;;;;27.07;15.57;;;;;;;2.57;100.00;96826.80;3720286;79;44068;-22
2020/12/06 00:31:11;;;;;;;28.77;17.33;;;;;;;2.57;100.00;96809.52;3707447;79;42892;-22
2020/12/06 00:36:17;;;;;;;28.40;16.97;;;;;;;2.54;100.00;96816.45;3711711;79;44612;-22
2020/12/06 00:41:23;;;;;;;26.60;15.63;;;;;;;2.51;100.00;96797.67;3764818;79;43209;-22
2020/12/06 00:46:32;;;;;;;30.87;17.00;;;;;;;2.52;100.00;96782.06;3746806;79;44016;-22
2020/12/06 00:51:38;;;;;;;26.37;16.07;;;;;;;2.48;100.00;96792.64;3714795;79;44727;-22
2020/12/06 00:56:44;;;;;;;30.00;17.20;;;;;;;2.47;100.00;96785.66;3744539;79;44027;-21
2020/12/06 01:01:49;;;;;;;29.70;16.43;;;;;;;2.42;100.00;96795.41;3732129;79;42865;-22
2020/12/06 01:06:57;;;;;;;27.87;16.27;;;;;;;2.32;100.00;96795.97;3743536;79;43397;-22
2020/12/06 01:12:02;;;;;;;26.30;14.93;;;;;;;2.27;100.00;96805.72;3764627;79;43418;-21
2020/12/06 01:17:08;;;;;;;29.57;16.67;;;;;;;2.22;100.00;96796.53;3731930;79;43715;-22
2020/12/06 01:22:14;;;;;;;28.80;16.67;;;;;;;2.06;100.00;96779.41;3727414;79;43256;-22
2020/12/06 01:27:20;;;;;;;31.67;16.97;;;;;;;2.00;100.00;96784.00;3737382;79;43989;-22
2020/12/06 01:32:32;;;;;;;30.40;16.83;;;;;;;1.93;100.00;96769.65;3740245;78;43444;-22
2020/12/06 01:37:35;;;;;;;33.57;17.17;;;;;;;1.74;100.00;96774.05;3732565;78;42164;-22
2020/12/06 01:42:41;;;;;;;31.90;17.30;;;;;;;1.75;100.00;96765.11;3699808;80;43316;-23
2020/12/06 01:47:47;;;;;;;35.90;18.87;;;;;;;1.63;100.00;96763.63;3711911;79;44144;-22
2020/12/06 01:52:53;;;;;;;33.80;18.73;;;;;;;1.65;100.00;96760.34;3740445;79;44073;-22
2020/12/06 01:58:04;;;;;;;29.80;17.73;;;;;;;1.63;100.00;96763.15;3729044;79;44039;-21
2020/12/06 02:03:09;;;;;;;31.00;17.80;;;;;;;1.59;100.00;96761.76;3748588;79;44039;-22
2020/12/06 02:08:15;;;;;;;35.03;19.47;;;;;;;1.57;100.00;96744.31;3725330;79;43993;-22
2020/12/06 02:13:22;;;;;;;33.07;17.17;;;;;;;1.57;100.00;96764.22;3757026;79;43709;-21
2020/12/06 02:18:28;;;;;;;28.47;16.50;;;;;;;1.52;100.00;96769.46;3693042;79;43043;-22
2020/12/06 02:23:34;;;;;;;32.33;17.07;;;;;;;1.49;100.00;96771.58;3753710;79;43562;-22
2020/12/06 02:28:40;;;;;;;30.57;18.10;;;;;;;1.51;100.00;96769.62;3721109;79;43500;-22
2020/12/06 02:33:46;;;;;;;30.27;17.00;;;;;;;1.44;100.00;96759.22;3756070;78;44492;-22
2020/12/06 02:38:52;;;;;;;30.63;17.53;;;;;;;1.47;100.00;96745.67;3736614;79;43431;-21
2020/12/06 02:43:58;;;;;;;33.10;19.97;;;;;;;1.45;100.00;96729.91;3719489;79;44051;-22
2020/12/06 02:49:05;;;;;;;31.13;17.70;;;;;;;1.35;100.00;96727.78;3711774;79;44391;-22
2020/12/06 02:54:10;;;;;;;32.63;18.63;;;;;;;1.35;100.00;96712.69;3739552;79;43702;-22
2020/12/06 02:59:16;;;;;;;28.33;16.10;;;;;;;1.31;100.00;96698.53;3712639;79;44096;-22
2020/12/06 03:04:22;;;;;;;32.40;18.17;;;;;;;1.23;100.00;96727.93;3762005;79;44022;-22
2020/12/06 03:09:28;;;;;;;32.00;18.07;;;;;;;1.00;100.00;96704.09;3710719;79;42829;-22
2020/12/06 03:14:35;;;;;;;36.90;18.77;;;;;;;0.71;100.00;96681.94;3702654;79;43411;-22
2020/12/06 03:19:41;;;;;;;32.37;18.47;;;;;;;0.73;100.00;96670.71;3705930;79;44081;-21
2020/12/06 03:24:47;;;;;;;36.10;18.80;;;;;;;0.76;100.00;96661.66;3764455;79;43165;-21
2020/12/06 03:29:52;;;;;;;37.60;19.43;;;;;;;0.81;100.00;96659.40;3705808;79;44011;-21
2020/12/06 03:34:59;;;;;;;31.73;17.63;;;;;;;0.82;100.00;96654.45;3701474;79;44129;-21
2020/12/06 03:40:06;;;;;;;33.03;19.17;;;;;;;0.79;100.00;96653.41;3750421;79;44058;-21
2020/12/06 03:45:12;;;;;;;28.70;16.40;;;;;;;0.74;100.00;96660.46;3759283;79;43369;-21
2020/12/06 03:50:18;;;;;;;29.30;16.73;;;;;;;0.73;100.00;96683.14;3696992;80;44010;-21
2020/12/06 03:55:24;;;;;;;38.37;19.00;;;;;;;0.65;100.00;96675.08;3727916;79;44230;-22
2020/12/06 04:00:31;;;;;;;35.57;19.03;;;;;;;0.55;100.00;96665.30;3715144;79;42958;-21
2020/12/06 04:05:37;;;;;;;34.77;18.90;;;;;;;0.48;100.00;96653.61;3754997;79;43684;-22
2020/12/06 04:10:42;;;;;;;32.87;18.00;;;;;;;0.52;100.00;96655.02;3694933;79;44371;-21
2020/12/06 04:15:48;;;;;;;34.63;18.60;;;;;;;0.50;100.00;96658.76;3751883;79;44044;-22
2020/12/06 04:20:54;;;;;;;39.80;19.90;;;;;;;0.47;100.00;96659.06;3727477;79;43451;-21
2020/12/06 04:26:00;;;;;;;34.93;18.20;;;;;;;0.42;100.00;96655.02;3757226;79;44505;-22
2020/12/06 04:31:07;;;;;;;38.80;20.17;;;;;;;0.45;100.00;96660.52;3698268;79;43996;-22
2020/12/06 04:36:13;;;;;;;38.83;20.73;;;;;;;0.50;100.00;96658.28;3696575;78;43706;-21
2020/12/06 04:41:21;;;;;;;32.73;17.47;;;;;;;0.48;100.00;96678.78;3716343;79;44518;-22
2020/12/06 04:46:29;;;;;;;32.77;17.17;;;;;;;0.37;100.00;96667.02;3744084;79;43338;-22
2020/12/06 04:51:38;;;;;;;36.77;19.57;;;;;;;0.31;100.00;96663.11;3696223;79;43686;-22
2020/12/06 04:56:47;;;;;;;36.77;19.90;;;;;;;0.37;100.00;96665.69;3704822;79;44026;-21
2020/12/06 05:01:55;;;;;;;34.60;19.33;;;;;;;0.43;100.00;96669.08;3728223;79;44094;-21
2020/12/06 05:07:02;;;;;;;36.83;19.80;;;;;;;0.48;100.00;96682.75;3735648;79;43438;-21
2020/12/06 05:12:09;;;;;;;42.43;22.23;;;;;;;0.44;100.00;96680.03;3731191;79;43693;-21
2020/12/06 05:17:16;;;;;;;40.67;21.40;;;;;;;0.40;100.00;96653.49;3733846;79;44499;-21
2020/12/06 05:22:27;;;;;;;38.97;20.33;;;;;;;0.44;100.00;96657.52;3695825;79;44493;-21
2020/12/06 05:27:32;;;;;;;40.80;21.63;;;;;;;0.47;100.00;96639.20;3709023;79;43428;-22
2020/12/06 05:32:39;;;;;;;44.50;21.17;;;;;;;0.49;100.00;96663.71;3737597;79;42978;-22
2020/12/06 05:37:46;;;;;;;38.43;19.63;;;;;;;0.45;100.00;96655.21;3758786;79;44071;-21
2020/12/06 05:42:53;;;;;;;39.83;20.47;;;;;;;0.41;100.00;96661.79;3760060;79;42906;-21
2020/12/06 05:48:01;;;;;;;38.53;20.50;;;;;;;0.33;100.00;96654.55;3757282;79;42969;-22
2020/12/06 05:53:07;;;;;;;37.83;19.37;;;;;;;0.26;100.00;96659.56;3759854;79;43500;-22
2020/12/06 05:58:16;;;;;;;35.47;18.83;;;;;;;0.13;100.00;96686.81;3746608;79;44158;-21
2020/12/06 06:03:26;;;;;;;39.70;18.80;;;;;;;0.13;100.00;96657.69;3759265;79;44052;-22
2020/12/06 06:08:33;;;;;;;45.07;20.83;;;;;;;0.04;100.00;96646.61;3755560;79;43436;-21
2020/12/06 06:13:43;;;;;;;39.70;20.60;;;;;;;0.08;100.00;96658.58;3759434;79;44217;-22
2020/12/06 06:18:50;;;;;;;40.80;21.23;;;;;;;0.10;100.00;96648.22;3754696;78;42974;-22
2020/12/06 06:23:58;;;;;;;41.50;21.10;;;;;;;0.05;100.00;96645.64;3759542;79;43770;-21
2020/12/06 06:29:11;;;;;;;40.47;21.87;;;;;;;-0.02;100.00;96648.83;3726058;79;44062;-21
2020/12/06 06:34:19;;;;;;;40.13;20.70;;;;;;;-0.02;100.00;96684.56;3758517;77;44012;-21
2020/12/06 06:39:26;;;;;;;40.20;21.30;;;;;;;-0.09;100.00;96682.59;3753582;79;44482;-21
2020/12/06 06:44:34;;;;;;;39.80;19.67;;;;;;;-0.11;100.00;96666.02;3759951;79;43410;-21
2020/12/06 06:49:53;;;;;;;44.37;22.60;;;;;;;-0.17;100.00;96664.75;3752844;79;43200;-26
2020/12/06 06:54:59;;;;;;;43.37;20.23;;;;;;;-0.16;100.00;96646.58;3738473;79;43523;-25
2020/12/06 07:00:07;;;;;;;41.03;20.77;;;;;;;-0.16;100.00;96650.55;3737132;79;43991;-26
2020/12/06 07:05:22;;;;;;;37.43;20.10;;;;;;;-0.09;100.00;96679.95;3761966;79;43503;-27
2020/12/06 07:10:28;;;;;;;41.27;20.67;;;;;;;-0.13;100.00;96660.87;3747718;79;43272;-26
2020/12/06 07:15:34;;;;;;;44.00;21.30;;;;;;;-0.15;100.00;96657.52;3757630;79;43483;-25
2020/12/06 07:20:40;;;;;;;41.40;20.63;;;;;;;-0.10;100.00;96667.22;3755917;79;44297;-26
2020/12/06 07:25:47;;;;;;;35.03;19.13;;;;;;;-0.08;100.00;96663.09;3755340;79;43693;-26
2020/12/06 07:30:53;;;;;;;42.10;21.13;;;;;;;-0.08;100.00;96658.66;3742190;79;43306;-26
2020/12/06 07:35:59;;;;;;;38.20;19.77;;;;;;;-0.06;100.00;96649.25;3757946;77;44082;-26
2020/12/06 07:41:05;;;;;;;39.20;20.03;;;;;;;-0.08;100.00;96663.95;3761753;79;43923;-26
2020/12/06 07:46:20;;;;;;;42.10;21.53;;;;;;;-0.08;100.00;96675.86;3760102;79;43678;-25
2020/12/06 07:51:28;;;;;;;38.57;20.10;;;;;;;-0.17;100.00;96662.11;3761692;79;43248;-26
2020/12/06 07:56:38;;;;;;;40.80;20.57;;;;;;;-0.10;100.00;96656.63;3738264;79;44011;-26
2020/12/06 08:01:46;;;;;;;44.67;22.30;;;;;;;-0.08;100.00;96654.69;3761380;79;44058;-25
2020/12/06 08:06:55;;;;;;;47.10;23.87;;;;;;;-0.02;100.00;96651.47;3745007;78;44442;-26
2020/12/06 08:12:04;;;;;;;44.73;22.07;;;;;;;0.05;100.00;96648.28;3761785;79;43423;-26
2020/12/06 08:17:10;;;;;;;47.10;23.53;;;;;;;0.06;100.00;96632.25;3757083;79;43339;-26
2020/12/06 08:22:16;;;;;;;48.40;23.27;;;;;;;0.17;100.00;96623.81;3761540;79;43662;-26
2020/12/06 08:27:24;;;;;;;46.70;22.90;;;;;;;0.25;100.00;96618.64;3754602;79;43378;-26
2020/12/06 08:32:31;;;;;;;46.37;23.87;;;;;;;0.30;100.00;96630.98;3757620;79;43493;-26
2020/12/06 08:37:37;;;;;;;44.90;22.53;;;;;;;0.45;100.00;96627.40;3747290;78;43426;-25
2020/12/06 08:42:43;;;;;;;49.47;23.93;;;;;;;0.60;100.00;96609.23;3754854;79;43694;-26
2020/12/06 08:47:49;;;;;;;43.77;22.40;;;;;;;0.68;100.00;96592.14;3751098;78;43687;-26
2020/12/06 08:52:58;;;;;;;38.90;21.93;;;;;;;0.65;100.00;96616.27;3735321;79;27282;-26
2020/12/06 08:58:05;;;;;;;40.10;21.73;;;;;;;0.75;100.00;96592.40;3730482;79;44193;-27
2020/12/06 09:03:12;;;;;;;43.00;22.77;;;;;;;0.83;100.00;96604.43;3755348;78;44130;-26
2020/12/06 09:08:18;;;;;;;45.47;23.93;;;;;;;0.90;100.00;96586.95;3721449;78;44193;-26
2020/12/06 09:13:24;;;;;;;45.60;23.17;;;;;;;0.90;100.00;96601.53;3745587;78;44193;-25
2020/12/06 09:18:32;;;;;;;45.43;23.43;;;;;;;0.84;100.00;96623.33;3744989;79;44216;-26
2020/12/06 09:23:40;;;;;;;44.33;23.73;;;;;;;0.86;100.00;96615.23;3753768;79;43996;-26
2020/12/06 09:28:49;;;;;;;43.10;23.10;;;;;;;0.85;100.00;96639.59;3743098;78;43130;-26
2020/12/06 09:33:56;;;;;;;46.83;25.83;;;;;;;0.87;100.00;96640.28;3753641;79;42915;-26
2020/12/06 09:39:03;;;;;;;43.57;23.70;;;;;;;0.86;100.00;96637.76;3743999;77;44063;-27
2020/12/06 09:44:09;;;;;;;47.90;25.00;;;;;;;0.82;100.00;96639.87;3746180;78;43479;-26
2020/12/06 09:49:15;;;;;;;49.53;26.17;;;;;;;0.87;100.00;96629.68;3737338;79;43727;-26
2020/12/06 09:54:21;;;;;;;53.57;25.83;;;;;;;0.97;100.00;96629.63;3752972;79;44777;-26
2020/12/06 09:59:26;;;;;;;47.20;24.30;;;;;;;0.96;100.00;96620.00;3744634;78;43509;-26
2020/12/06 10:04:32;;;;;;;45.63;24.23;;;;;;;1.05;100.00;96631.08;3717797;79;44113;-26
2020/12/06 10:09:38;;;;;;;49.90;25.13;;;;;;;1.22;100.00;96625.97;3718604;79;43707;-26
2020/12/06 10:14:44;;;;;;;51.50;26.23;;;;;;;1.28;100.00;96632.02;3722312;78;43334;-26
2020/12/06 10:19:50;;;;;;;51.43;26.70;;;;;;;1.36;100.00;96654.66;3748098;79;43440;-26
2020/12/06 10:24:56;;;;;;;52.60;25.00;;;;;;;1.41;100.00;96660.03;3724100;79;44162;-26
2020/12/06 10:30:02;;;;;;;48.77;25.13;;;;;;;1.46;100.00;96668.37;3722102;78;43612;-27
2020/12/06 10:35:08;;;;;;;48.77;25.00;;;;;;;1.51;100.00;96664.29;3718324;79;43454;-26
2020/12/06 10:40:14;;;;;;;52.57;26.13;;;;;;;1.48;100.00;96623.45;3713461;79;43591;-26
2020/12/06 10:45:20;;;;;;;52.30;25.67;;;;;;;1.64;100.00;96611.34;3718253;79;43295;-27
2020/12/06 10:50:26;;;;;;;50.17;25.23;;;;;;;1.73;100.00;96600.33;3762274;79;44684;-27
2020/12/06 10:55:32;;;;;;;53.67;26.30;;;;;;;1.82;100.00;96576.34;3761760;79;44520;-26
2020/12/06 11:00:39;;;;;;;53.60;25.07;;;;;;;1.91;100.00;96565.81;3761747;79;44087;-26
2020/12/06 11:05:45;;;;;;;55.00;24.60;;;;;;;1.96;100.00;96579.45;3735231;79;44110;-26
2020/12/06 11:10:51;;;;;;;75.47;31.43;;;;;;;2.03;100.00;96590.30;3740941;79;43615;-27
2020/12/06 11:15:57;;;;;;;96.63;33.37;;;;;;;2.08;100.00;96567.61;3747765;79;44142;-27
2020/12/06 11:21:03;;;;;;;90.20;31.93;;;;;;;2.11;100.00;96572.62;3753049;79;44977;-26
2020/12/06 11:26:09;;;;;;;101.27;33.90;;;;;;;2.15;100.00;96570.00;3754723;79;44073;-26
2020/12/06 11:31:16;;;;;;;94.50;32.07;;;;;;;2.13;100.00;96578.61;3763500;79;44084;-26
2020/12/06 11:36:22;;;;;;;78.73;32.73;;;;;;;2.15;100.00;96593.91;3755723;78;43403;-27
2020/12/06 11:41:28;;;;;;;76.03;33.73;;;;;;;2.04;100.00;96590.16;3756619;79;44480;-27
2020/12/06 11:46:34;;;;;;;78.70;33.10;;;;;;;1.93;100.00;96571.81;3742432;78;43741;-26
2020/12/06 11:51:40;;;;;;;89.03;35.33;;;;;;;1.90;100.00;96575.58;3711123;78;44153;-27
2020/12/06 11:56:49;;;;;;;91.77;34.63;;;;;;;2.01;100.00;96554.61;3751258;78;42823;-27
2020/12/06 12:01:55;;;;;;;96.07;36.23;;;;;;;1.96;100.00;96559.06;3749740;78;43708;-26
2020/12/06 12:07:01;;;;;;;97.83;35.83;;;;;;;2.08;100.00;96562.30;3728442;79;44427;-27
2020/12/06 12:12:07;;;;;;;117.93;38.57;;;;;;;2.13;100.00;96569.31;3744316;78;44081;-26
2020/12/06 12:17:14;;;;;;;98.87;36.50;;;;;;;2.19;100.00;96559.89;3730900;79;44026;-27
2020/12/06 12:22:20;;;;;;;104.53;36.57;;;;;;;2.20;100.00;96544.78;3733665;78;44498;-26
2020/12/06 12:27:26;;;;;;;128.60;38.37;;;;;;;2.23;100.00;96561.74;3727275;78;43400;-27
2020/12/06 12:32:33;;;;;;;105.80;35.43;;;;;;;2.19;100.00;96561.23;3722210;79;43713;-28
2020/12/06 12:37:38;;;;;;;130.90;36.17;;;;;;;2.29;100.00;96570.44;3725388;79;44100;-27
2020/12/06 12:42:44;;;;;;;91.60;31.27;;;;;;;2.26;100.00;96564.09;3716722;79;43484;-27
2020/12/06 12:47:53;;;;;;;101.67;34.23;;;;;;;2.23;100.00;96568.39;3709628;79;43679;-26
2020/12/06 12:53:00;;;;;;;89.10;33.93;;;;;;;2.28;100.00;96558.14;3708036;79;44011;-27
2020/12/06 12:58:07;;;;;;;105.47;35.13;;;;;;;2.27;100.00;96570.58;3712211;79;43377;-26
2020/12/06 13:03:14;;;;;;;101.50;37.33;;;;;;;2.28;100.00;96564.27;3708690;79;43693;-26
2020/12/06 13:08:21;;;;;;;115.00;33.77;;;;;;;2.28;100.00;96563.45;3756491;79;43383;-27
2020/12/06 13:13:28;;;;;;;115.17;35.63;;;;;;;2.32;100.00;96547.52;3692393;79;44027;-26
2020/12/06 13:18:35;;;;;;;98.67;34.67;;;;;;;2.28;100.00;96536.38;3695835;79;43385;-26
2020/12/06 13:23:41;;;;;;;92.47;31.57;;;;;;;2.27;100.00;96553.81;3705852;79;43387;-23
2020/12/06 13:28:49;;;;;;;92.43;32.30;;;;;;;2.33;100.00;96551.03;3705255;79;43394;-26
2020/12/06 13:33:56;;;;;;;96.43;34.10;;;;;;;2.47;100.00;96538.47;3707495;79;43156;-26
2020/12/06 13:39:17;;;;;;;85.33;32.20;;;;;;;2.45;100.00;96541.30;3715839;78;44094;-27
2020/12/06 13:44:27;;;;;;;85.83;32.47;;;;;;;2.51;100.00;96549.14;3740134;79;43523;-26
2020/12/06 13:49:40;;;;;;;78.40;32.70;;;;;;;2.69;100.00;96535.78;3713765;79;26491;-26
2020/12/06 13:54:46;;;;;;;74.67;29.33;;;;;;;2.73;100.00;96557.09;3710040;79;44126;-27
2020/12/06 13:59:53;;;;;;;68.90;26.70;;;;;;;2.75;100.00;96564.41;3707889;79;44631;-27
2020/12/06 14:04:59;;;;;;;69.33;29.50;;;;;;;2.75;100.00;96563.09;3709629;79;43705;-27
2020/12/06 14:10:05;;;;;;;67.70;28.70;;;;;;;2.77;100.00;96557.59;3707337;79;44164;-27
2020/12/06 14:15:11;;;;;;;66.47;28.03;;;;;;;2.74;100.00;96568.06;3704110;79;43218;-26
2020/12/06 14:20:18;;;;;;;71.07;29.80;;;;;;;2.72;100.00;96566.05;3704975;79;44007;-24
2020/12/06 14:25:25;;;;;;;68.97;28.80;;;;;;;2.71;100.00;96560.88;3706338;79;43372;-24
2020/12/06 14:30:31;;;;;;;65.17;29.13;;;;;;;2.60;100.00;96552.18;3713323;79;44531;-27
2020/12/06 14:35:37;;;;;;;71.33;28.73;;;;;;;2.51;100.00;96552.31;3710228;79;44022;-24
2020/12/06 14:40:43;;;;;;;74.70;28.23;;;;;;;2.28;100.00;96542.20;3750230;77;44072;-24
2020/12/06 14:45:49;;;;;;;64.37;27.43;;;;;;;2.33;100.00;96552.36;3801438;77;44006;-25
2020/12/06 14:50:57;;;;;;;74.57;27.57;;;;;;;2.35;100.00;96567.15;3767434;78;44553;-25
2020/12/06 14:56:04;;;;;;;64.50;28.00;;;;;;;2.38;100.00;96578.80;3779760;78;44045;-25
2020/12/06 15:01:10;;;;;;;63.90;26.00;;;;;;;2.36;100.00;96575.94;3796953;77;44082;-25
2020/12/06 15:06:18;;;;;;;68.03;28.43;;;;;;;2.31;100.00;96571.09;3792275;77;42986;-26
2020/12/06 15:11:25;;;;;;;64.73;26.27;;;;;;;2.27;100.00;96569.25;3791070;78;44185;-25
2020/12/06 15:16:32;;;;;;;62.63;26.10;;;;;;;2.19;100.00;96547.94;3797919;77;43712;-25
2020/12/06 15:21:38;;;;;;;61.90;28.17;;;;;;;2.10;100.00;96547.04;3805563;78;44428;-27
2020/12/06 15:26:47;;;;;;;69.07;28.90;;;;;;;1.96;100.00;96578.13;3786183;77;43371;-27
2020/12/06 15:31:52;;;;;;;64.40;28.53;;;;;;;1.95;100.00;96569.81;3806024;77;44078;-25
2020/12/06 15:37:00;;;;;;;72.27;28.63;;;;;;;1.84;100.00;96578.36;3792746;77;44430;-25
2020/12/06 15:42:06;;;;;;;57.30;26.13;;;;;;;1.75;100.00;96568.66;3774643;78;43667;-25
2020/12/06 15:47:11;;;;;;;61.37;27.10;;;;;;;1.69;100.00;96571.92;3753346;79;44451;-25
2020/12/06 15:52:20;;;;;;;68.17;27.90;;;;;;;1.66;100.00;96562.94;3742867;79;43483;-25
2020/12/06 15:57:26;;;;;;;68.70;27.93;;;;;;;1.66;100.00;96565.08;3746247;79;43445;-24
2020/12/06 16:02:33;;;;;;;69.00;28.23;;;;;;;1.71;100.00;96554.52;3763957;79;44003;-25
2020/12/06 16:07:39;;;;;;;70.33;29.17;;;;;;;1.71;100.00;96553.19;3725768;79;43374;-25
2020/12/06 16:12:45;;;;;;;64.10;28.60;;;;;;;1.69;100.00;96569.27;3741323;79;43690;-24
2020/12/06 16:17:52;;;;;;;68.67;28.87;;;;;;;1.71;100.00;96551.34;3751577;79;43431;-25
2020/12/06 16:22:58;;;;;;;80.43;30.50;;;;;;;1.71;100.00;96551.86;3759623;77;43647;-27
2020/12/06 16:28:07;;;;;;;74.43;30.77;;;;;;;1.65;100.00;96537.38;3713597;78;43126;-25
2020/12/06 16:33:12;;;;;;;72.57;27.93;;;;;;;1.60;100.00;96533.84;3699223;80;43462;-27
2020/12/06 16:38:19;;;;;;;72.23;28.17;;;;;;;1.58;100.00;96536.33;3693898;79;43691;-24
2020/12/06 16:43:24;;;;;;;70.43;28.40;;;;;;;1.54;100.00;96547.23;3742128;77;42955;-27
2020/12/06 16:48:32;;;;;;;65.60;27.40;;;;;;;1.54;100.00;96534.44;3746207;78;43673;-27
2020/12/06 16:53:38;;;;;;;69.07;29.00;;;;;;;1.52;100.00;96530.62;3733259;77;44547;-25
2020/12/06 16:58:44;;;;;;;69.17;28.00;;;;;;;1.52;100.00;96542.56;3750538;77;44037;-25
2020/12/06 17:03:50;;;;;;;64.77;26.60;;;;;;;1.48;100.00;96546.49;3745091;79;43738;-25
2020/12/06 17:08:56;;;;;;;73.17;27.73;;;;;;;1.53;100.00;96544.71;3747461;79;43678;-27
2020/12/06 17:14:02;;;;;;;67.67;27.83;;;;;;;1.53;100.00;96535.42;3748552;77;43480;-27
2020/12/06 17:19:07;;;;;;;62.60;25.60;;;;;;;1.57;100.00;96523.53;3748732;78;44131;-27
2020/12/06 17:24:13;;;;;;;61.30;24.70;;;;;;;1.62;100.00;96509.80;3746377;79;42778;-27
2020/12/06 17:29:19;;;;;;;63.80;25.77;;;;;;;1.66;100.00;96505.86;3710995;79;42843;-27
2020/12/06 17:34:25;;;;;;;65.80;27.03;;;;;;;1.67;100.00;96495.59;3744713;78;44698;-27
2020/12/06 17:39:33;;;;;;;65.37;27.20;;;;;;;1.72;100.00;96485.84;3748370;78;43715;-27
2020/12/06 17:44:40;;;;;;;61.43;24.80;;;;;;;1.75;100.00;96486.87;3751546;77;43979;-27
2020/12/06 17:49:46;;;;;;;64.87;25.53;;;;;;;1.77;100.00;96478.23;3754439;76;414506;-27
2020/12/06 17:54:52;;;;;;;69.10;28.43;;;;;;;1.81;100.00;96468.98;3746944;78;44033;-27
2020/12/06 17:59:57;;;;;;;63.10;25.67;;;;;;;1.84;100.00;96463.37;3719359;76;44038;-27
2020/12/06 18:05:04;;;;;;;55.67;25.40;;;;;;;1.85;100.00;96469.02;3752161;76;43690;-28
2020/12/06 18:10:10;;;;;;;56.60;23.47;;;;;;;1.89;100.00;96484.14;3750481;79;43422;-27
2020/12/06 18:15:16;;;;;;;57.23;24.60;;;;;;;1.88;100.00;96495.27;3748788;77;44837;-27
2020/12/06 18:20:22;;;;;;;60.77;24.20;;;;;;;1.80;100.00;96476.12;3773412;77;43455;-26
2020/12/06 18:25:28;;;;;;;50.73;23.00;;;;;;;1.83;100.00;96473.14;3768377;77;44094;-26
2020/12/06 18:30:35;;;;;;;56.50;25.00;;;;;;;1.80;100.00;96467.31;3769850;76;43677;-25
2020/12/06 18:35:41;;;;;;;65.53;27.40;;;;;;;1.71;100.00;96467.73;3756427;77;43726;-26
2020/12/06 18:40:47;;;;;;;66.60;27.47;;;;;;;1.62;100.00;96488.56;3748602;78;44134;-26
2020/12/06 18:45:53;;;;;;;65.37;28.20;;;;;;;1.46;100.00;96483.48;3671306;79;42816;-25
2020/12/06 18:51:00;;;;;;;64.20;26.70;;;;;;;1.32;100.00;96480.84;3690820;78;43688;-23
2020/12/06 18:56:08;;;;;;;62.97;28.37;;;;;;;1.23;100.00;96473.29;3673589;80;43686;-22
2020/12/06 19:01:17;;;;;;;66.40;28.03;;;;;;;1.30;100.00;96464.74;3644371;80;43657;-22
2020/12/06 19:06:23;;;;;;;51.80;22.70;;;;;;;1.32;100.00;96451.66;3680625;80;43302;-22
2020/12/06 19:11:29;;;;;;;63.73;28.17;;;;;;;1.38;100.00;96449.74;3636520;80;43381;-22
2020/12/06 19:16:36;;;;;;;57.47;25.13;;;;;;;1.44;100.00;96458.06;3736732;79;43714;-22
2020/12/06 19:21:42;;;;;;;58.03;25.63;;;;;;;1.45;100.00;96461.06;3580058;81;43054;-22
2020/12/06 19:26:52;;;;;;;61.57;25.67;;;;;;;1.46;100.00;96482.16;3685846;79;44374;-22
2020/12/06 19:31:58;;;;;;;54.33;23.87;;;;;;;1.49;100.00;96483.16;3624896;81;43727;-22
2020/12/06 19:37:06;;;;;;;55.10;25.70;;;;;;;1.50;100.00;96481.34;3691386;80;44141;-23
2020/12/06 19:42:13;;;;;;;61.77;26.83;;;;;;;1.49;100.00;96468.56;3622838;80;43737;-23
2020/12/06 19:47:19;;;;;;;63.37;27.90;;;;;;;1.51;100.00;96457.30;3686218;79;43713;-23
2020/12/06 19:52:29;;;;;;;65.80;26.77;;;;;;;1.57;100.00;96452.38;3706047;78;44072;-23
2020/12/06 19:57:37;;;;;;;68.07;27.20;;;;;;;1.66;100.00;96425.73;3715337;78;43341;-23
2020/12/06 20:02:46;;;;;;;66.63;28.43;;;;;;;1.68;100.00;96399.05;3700608;79;43329;-23
2020/12/06 20:07:52;;;;;;;62.53;26.27;;;;;;;1.78;100.00;96390.48;3577347;81;43988;-23
2020/12/06 20:12:58;;;;;;;66.17;27.80;;;;;;;1.85;100.00;96399.99;3705311;78;43702;-24
2020/12/06 20:18:04;;;;;;;66.73;27.07;;;;;;;1.88;100.00;96410.78;3690316;80;43126;-23
2020/12/06 20:23:11;;;;;;;62.90;27.30;;;;;;;1.93;100.00;96417.80;3582214;83;44062;-23
2020/12/06 20:28:24;;;;;;;62.40;25.43;;;;;;;1.96;100.00;96422.30;3691370;78;42749;-23
2020/12/06 20:33:26;;;;;;;55.07;25.27;;;;;;;1.98;100.00;96438.06;3658554;80;43314;-23
2020/12/06 20:38:32;;;;;;;59.57;24.70;;;;;;;1.97;100.00;96419.98;3702945;80;44096;-23
2020/12/06 20:43:39;;;;;;;52.80;24.07;;;;;;;1.87;100.00;96418.41;3684451;78;43470;-22
2020/12/06 20:48:45;;;;;;;49.90;23.57;;;;;;;1.88;100.00;96404.14;3719820;79;44049;-23
2020/12/06 20:53:51;;;;;;;46.63;23.57;;;;;;;1.83;100.00;96424.53;3703802;79;42888;-22
2020/12/06 20:58:57;;;;;;;54.10;25.77;;;;;;;1.73;100.00;96423.29;3663488;80;43685;-22
2020/12/06 21:04:04;;;;;;;60.47;26.27;;;;;;;1.60;100.00;96419.73;3656900;81;44477;-22
2020/12/06 21:09:10;;;;;;;59.50;28.20;;;;;;;1.38;100.00;96403.79;3636871;81;42884;-22
2020/12/06 21:14:16;;;;;;;65.10;28.40;;;;;;;1.37;100.00;96396.34;3609450;81;43338;-22
2020/12/06 21:19:22;;;;;;;58.63;27.60;;;;;;;1.29;100.00;96379.52;3589547;82;44091;-22
2020/12/06 21:24:29;;;;;;;69.67;29.57;;;;;;;1.33;100.00;96375.58;3600448;82;43439;-23
2020/12/06 21:29:36;;;;;;;58.40;26.80;;;;;;;1.35;100.00;96382.90;3709157;78;44040;-23
2020/12/06 21:34:43;;;;;;;66.87;27.97;;;;;;;1.43;100.00;96390.91;3679199;79;42764;-22
2020/12/06 21:39:49;;;;;;;65.77;27.60;;;;;;;1.45;100.00;96375.67;3596273;82;43424;-22
2020/12/06 21:44:55;;;;;;;62.50;28.43;;;;;;;1.51;100.00;96378.20;3586303;81;44083;-23
2020/12/06 21:50:01;;;;;;;62.53;27.50;;;;;;;1.57;100.00;96374.91;3687185;80;44078;-23
2020/12/06 21:55:07;;;;;;;67.47;28.20;;;;;;;1.61;100.00;96358.18;3681955;80;43731;-23
2020/12/06 22:00:14;;;;;;;58.30;25.77;;;;;;;1.65;100.00;96365.67;3638123;80;43995;-23
2020/12/06 22:05:20;;;;;;;60.97;26.37;;;;;;;1.70;100.00;96378.50;3667289;79;44011;-22
2020/12/06 22:10:26;;;;;;;53.77;26.27;;;;;;;1.67;100.00;96362.88;3671243;80;44042;-23
2020/12/06 22:15:32;;;;;;;60.63;26.57;;;;;;;1.64;100.00;96372.00;3666224;79;43683;-22
2020/12/06 22:20:39;;;;;;;55.13;27.00;;;;;;;1.66;100.00;96395.20;3666664;80;44083;-22
2020/12/06 22:25:45;;;;;;;55.73;25.30;;;;;;;1.65;100.00;96386.08;3664891;80;43965;-22
2020/12/06 22:30:51;;;;;;;64.10;28.43;;;;;;;1.59;100.00;96381.41;3654356;79;43686;-22
2020/12/06 22:35:58;;;;;;;67.57;28.73;;;;;;;1.62;100.00;96389.05;3651881;79;43392;-22
2020/12/06 22:41:04;;;;;;;68.20;28.27;;;;;;;1.56;100.00;96383.86;3676649;80;43372;-22
2020/12/06 22:46:11;;;;;;;67.33;28.60;;;;;;;1.63;100.00;96361.04;3685411;79;43330;-22
2020/12/06 22:51:18;;;;;;;77.73;30.70;;;;;;;1.65;100.00;96359.03;3676354;80;43455;-22
2020/12/06 22:56:25;;;;;;;67.33;29.13;;;;;;;1.73;100.00;96356.11;3677381;80;43010;-22
2020/12/06 23:01:31;;;;;;;68.03;28.57;;;;;;;1.71;100.00;96369.52;3640197;80;43061;-22
2020/12/06 23:06:38;;;;;;;68.13;28.43;;;;;;;1.68;100.00;96350.77;3682189;79;43723;-22
2020/12/06 23:11:44;;;;;;;64.33;26.80;;;;;;;1.70;100.00;96345.33;3669371;79;43722;-22
2020/12/06 23:16:50;;;;;;;65.13;28.27;;;;;;;1.78;100.00;96349.82;3635644;80;43984;-23
2020/12/06 23:21:57;;;;;;;66.97;29.67;;;;;;;1.82;100.00;96337.40;3638000;80;43025;-22
2020/12/06 23:27:03;;;;;;;56.57;26.67;;;;;;;1.90;100.00;96337.13;3658755;79;44038;-22